Time;durP1;ratioP1;P1;durP2;ratioP2;P2;SDS_P1;SDS_P2;PMS_P1;PMS_P2;Temp;Humidity;BMP_temperature;BMP_pressure;BME280_temperature;BME280_humidity;BME280_pressure;Samples;Min_cycle;Max_cycle;Signal;HPM_P1;HPM_P2
2022/05/01 00:01:16;;;;;;;27.80;24.20;;;11.80;93.30;;;;;;5074788;28;20228;-40
2022/05/01 00:03:42;;;;;;;29.67;23.77;;;11.80;93.30;;;;;;5074915;28;20693;-40
2022/05/01 00:06:09;;;;;;;29.27;24.30;;;11.80;93.40;;;;;;5076447;28;20184;-39
2022/05/01 00:08:41;;;;;;;27.73;23.57;;;11.80;93.40;;;;;;5075975;28;20483;-38
2022/05/01 00:11:10;;;;;;;25.63;22.87;;;11.80;93.50;;;;;;5076144;28;20519;-39
2022/05/01 00:13:36;;;;;;;26.33;23.40;;;11.70;93.50;;;;;;5076034;28;20481;-39
2022/05/01 00:16:02;;;;;;;26.70;23.50;;;11.70;93.60;;;;;;5071711;28;20962;-39
2022/05/01 00:18:28;;;;;;;28.63;23.47;;;11.70;93.60;;;;;;5065753;28;20436;-39
2022/05/01 00:20:54;;;;;;;27.23;22.80;;;11.70;93.70;;;;;;5057858;28;20931;-38
2022/05/01 00:23:20;;;;;;;28.73;23.87;;;11.70;93.80;;;;;;5057092;28;20190;-39
2022/05/01 00:25:46;;;;;;;27.53;23.43;;;11.60;93.80;;;;;;5057092;28;20409;-39
2022/05/01 00:28:13;;;;;;;29.70;23.83;;;11.60;93.80;;;;;;5058091;28;20433;-38
2022/05/01 00:30:39;;;;;;;29.90;24.10;;;11.60;93.90;;;;;;5077416;28;20707;-39
2022/05/01 00:38:35;;;;;;;30.07;25.13;;;11.50;94.50;;;;;;5077504;28;20477;-39
2022/05/01 00:41:01;;;;;;;28.30;24.50;;;11.50;94.20;;;;;;5077866;28;20469;-39
2022/05/01 00:43:27;;;;;;;29.90;25.57;;;11.50;94.30;;;;;;5060610;28;20432;-40
2022/05/01 00:45:53;;;;;;;32.47;26.37;;;11.40;94.30;;;;;;5077717;28;20416;-39
2022/05/01 00:48:18;;;;;;;30.10;25.10;;;11.40;94.40;;;;;;5077104;28;20441;-39
2022/05/01 00:50:44;;;;;;;28.90;24.50;;;11.40;94.40;;;;;;5077709;28;20564;-39
2022/05/01 00:53:10;;;;;;;28.03;22.93;;;11.40;94.40;;;;;;5059464;28;20188;-39
2022/05/01 00:55:37;;;;;;;34.83;25.20;;;11.40;94.40;;;;;;5077517;28;20236;-41
2022/05/01 00:58:05;;;;;;;29.90;25.90;;;11.30;94.40;;;;;;5077092;28;20427;-40
2022/05/01 01:00:32;;;;;;;30.90;25.83;;;11.30;94.40;;;;;;5077780;28;20483;-39
2022/05/01 01:02:57;;;;;;;34.60;26.33;;;11.30;94.50;;;;;;5077316;28;20431;-39
2022/05/01 01:05:24;;;;;;;35.10;26.40;;;11.30;94.60;;;;;;5077516;28;20408;-39
2022/05/01 01:07:49;;;;;;;34.13;25.67;;;11.30;94.60;;;;;;5077407;28;20182;-39
2022/05/01 01:10:15;;;;;;;32.93;24.67;;;11.30;94.70;;;;;;5077266;28;20427;-41
2022/05/01 01:12:56;;;;;;;30.40;23.40;;;11.20;94.70;;;;;;5077222;28;20184;-39
2022/05/01 01:15:30;;;;;;;31.50;24.67;;;11.20;94.80;;;;;;5077473;28;20193;-39
2022/05/01 01:17:56;;;;;;;34.23;26.30;;;11.20;94.80;;;;;;5076598;28;20434;-40
2022/05/01 01:20:24;;;;;;;28.90;22.80;;;11.20;94.80;;;;;;5076074;28;20467;-42
2022/05/01 01:22:51;;;;;;;31.67;23.67;;;11.20;94.80;;;;;;5075627;28;20424;-41
2022/05/01 01:25:31;;;;;;;28.60;22.80;;;11.20;94.70;;;;;;5076034;28;20767;-40
2022/05/01 01:28:05;;;;;;;27.33;22.50;;;11.10;94.60;;;;;;5080049;28;20977;-40
2022/05/01 01:33:17;;;;;;;30.97;21.97;;;11.10;94.50;;;;;;5080428;28;20468;-41
2022/05/01 01:35:44;;;;;;;32.93;23.00;;;11.10;94.40;;;;;;5081468;28;20503;-40
2022/05/01 01:38:10;;;;;;;31.43;23.23;;;11.10;94.50;;;;;;5063167;28;20698;-39
2022/05/01 01:40:45;;;;;;;30.47;24.63;;;11.10;94.50;;;;;;5080832;28;20561;-39
2022/05/01 01:43:11;;;;;;;29.97;23.73;;;11.10;94.60;;;;;;5080635;28;20178;-40
2022/05/01 01:45:37;;;;;;;33.90;25.40;;;11.00;94.50;;;;;;5063998;28;20715;-42
2022/05/01 01:48:14;;;;;;;30.70;25.40;;;11.00;94.60;;;;;;5081041;28;20427;-38
2022/05/01 01:50:41;;;;;;;29.13;23.40;;;11.00;94.60;;;;;;5081118;28;20251;-39
2022/05/01 01:53:07;;;;;;;32.40;25.53;;;11.00;94.60;;;;;;5080744;28;20431;-41
2022/05/01 01:55:33;;;;;;;28.40;23.03;;;10.90;94.60;;;;;;5080091;28;20471;-39
2022/05/01 01:57:59;;;;;;;30.63;25.03;;;10.90;94.60;;;;;;5062364;28;20439;-41
2022/05/01 02:00:25;;;;;;;30.27;24.83;;;10.90;94.60;;;;;;5080195;28;20467;-38
2022/05/01 02:03:03;;;;;;;31.90;23.40;;;10.90;94.70;;;;;;5080305;28;20291;-39
2022/05/01 02:05:29;;;;;;;29.80;24.50;;;10.90;94.80;;;;;;5080319;28;20480;-38
2022/05/01 02:07:55;;;;;;;30.73;24.57;;;10.80;94.80;;;;;;5080619;28;20512;-40
2022/05/01 02:10:21;;;;;;;32.03;25.83;;;10.90;94.90;;;;;;5079667;28;20515;-38
2022/05/01 02:12:47;;;;;;;32.00;26.03;;;10.80;94.90;;;;;;5080266;28;20183;-42
2022/05/01 02:15:13;;;;;;;30.23;24.93;;;10.80;94.90;;;;;;5080307;28;20420;-37
2022/05/01 02:17:39;;;;;;;31.23;23.67;;;10.80;95.00;;;;;;5080451;28;20493;-39
2022/05/01 02:20:06;;;;;;;30.57;26.17;;;10.80;95.00;;;;;;5079902;28;20413;-39
2022/05/01 02:22:31;;;;;;;26.43;21.73;;;10.70;94.90;;;;;;5080444;28;20527;-40
2022/05/01 02:24:57;;;;;;;31.50;24.33;;;10.70;95.00;;;;;;5080368;28;20455;-40
2022/05/01 02:27:23;;;;;;;29.30;23.77;;;10.70;95.00;;;;;;5080219;28;20204;-39
2022/05/01 02:29:48;;;;;;;31.17;23.43;;;10.70;95.00;;;;;;5080292;28;20209;-39
2022/05/01 02:32:14;;;;;;;29.20;23.60;;;10.70;95.00;;;;;;5080261;28;20188;-39
2022/05/01 02:34:40;;;;;;;27.40;23.57;;;10.70;95.00;;;;;;5080819;28;20184;-40
2022/05/01 02:37:06;;;;;;;28.80;22.90;;;10.70;95.10;;;;;;5079658;28;20626;-42
2022/05/01 02:39:33;;;;;;;30.70;24.53;;;10.80;95.10;;;;;;5080099;28;20412;-39
2022/05/01 02:41:59;;;;;;;29.87;23.47;;;10.80;95.10;;;;;;5080078;28;20514;-44
2022/05/01 02:44:24;;;;;;;31.03;24.40;;;10.80;95.10;;;;;;5080354;28;20437;-38
2022/05/01 02:46:50;;;;;;;27.57;22.63;;;10.80;95.10;;;;;;5079924;28;20177;-40
2022/05/01 02:49:16;;;;;;;28.30;23.07;;;10.80;95.10;;;;;;5079892;28;20244;-39
2022/05/01 02:51:42;;;;;;;27.10;23.30;;;10.80;95.10;;;;;;5080053;28;20279;-42
2022/05/01 02:54:08;;;;;;;29.50;25.03;;;10.80;95.10;;;;;;5080011;28;20218;-40
2022/05/01 02:56:34;;;;;;;30.80;26.10;;;10.80;95.10;;;;;;5062280;28;20424;-39
2022/05/01 02:59:00;;;;;;;30.37;25.37;;;10.80;95.20;;;;;;5080076;28;20863;-40
2022/05/01 03:01:27;;;;;;;30.07;25.13;;;10.80;95.20;;;;;;5079813;28;20791;-40
2022/05/01 03:03:53;;;;;;;29.40;25.27;;;10.80;95.20;;;;;;5079614;28;20181;-39
2022/05/01 03:06:19;;;;;;;30.90;25.47;;;10.80;95.10;;;;;;5079903;28;20401;-40
2022/05/01 03:08:44;;;;;;;32.33;25.80;;;10.80;95.20;;;;;;5079207;28;20196;-40
2022/05/01 03:11:10;;;;;;;33.90;26.10;;;10.80;95.20;;;;;;5079460;28;20189;-40
2022/05/01 03:13:36;;;;;;;32.00;24.63;;;10.80;95.20;;;;;;5079456;28;20206;-39
2022/05/01 03:16:02;;;;;;;32.90;25.37;;;10.80;95.20;;;;;;5079702;28;20243;-40
2022/05/01 03:23:56;;;;;;;32.10;25.97;;;10.80;95.30;;;;;;5078145;28;20907;-39
2022/05/01 03:26:22;;;;;;;31.40;25.43;;;10.80;95.20;;;;;;5078079;28;20783;-39
2022/05/01 03:28:48;;;;;;;31.30;26.23;;;10.90;95.30;;;;;;5077428;28;20268;-42
2022/05/01 03:31:14;;;;;;;29.00;24.70;;;10.90;95.20;;;;;;5077512;28;20212;-40
2022/05/01 03:33:41;;;;;;;30.50;25.03;;;10.90;95.20;;;;;;5078696;28;20431;-39
2022/05/01 03:36:07;;;;;;;32.03;25.90;;;10.90;95.20;;;;;;5078800;28;20505;-40
2022/05/01 03:38:37;;;;;;;28.17;24.07;;;10.90;95.20;;;;;;5078725;28;20424;-38
2022/05/01 03:41:07;;;;;;;29.10;23.93;;;10.90;95.20;;;;;;5078754;28;20482;-39
2022/05/01 03:43:33;;;;;;;30.50;23.57;;;10.80;95.20;;;;;;5079167;28;20482;-39
2022/05/01 03:46:00;;;;;;;26.53;23.00;;;10.90;95.20;;;;;;5079156;28;20698;-39
2022/05/01 03:48:26;;;;;;;28.30;23.50;;;10.90;95.20;;;;;;5077776;28;20528;-39
2022/05/01 03:50:52;;;;;;;29.57;24.90;;;10.80;95.10;;;;;;5078400;28;20754;-40
2022/05/01 03:53:19;;;;;;;28.33;24.23;;;10.80;95.10;;;;;;5078705;28;20440;-39
2022/05/01 03:55:44;;;;;;;25.53;21.73;;;10.90;95.10;;;;;;5077202;28;20923;-41
2022/05/01 03:58:10;;;;;;;30.00;23.10;;;10.90;95.10;;;;;;5077341;28;20752;-39
2022/05/01 04:00:36;;;;;;;29.43;23.70;;;10.80;95.00;;;;;;5077552;28;20210;-47
2022/05/01 04:03:02;;;;;;;30.00;24.53;;;10.80;94.90;;;;;;5077070;28;20266;-48
2022/05/01 04:05:27;;;;;;;30.90;24.70;;;10.90;95.00;;;;;;5076262;28;20223;-47
2022/05/01 04:07:53;;;;;;;30.23;25.53;;;10.80;94.90;;;;;;5077751;28;20260;-45
2022/05/01 04:10:19;;;;;;;29.60;23.73;;;10.80;94.90;;;;;;5060059;28;20258;-46
2022/05/01 04:12:45;;;;;;;31.10;24.70;;;10.80;94.90;;;;;;5077191;28;20189;-46
2022/05/01 04:15:12;;;;;;;33.73;25.57;;;10.80;94.90;;;;;;5077541;28;20412;-45
2022/05/01 04:17:40;;;;;;;29.67;24.60;;;10.80;94.90;;;;;;5077440;28;20416;-45
2022/05/01 04:20:08;;;;;;;36.83;26.30;;;10.80;94.90;;;;;;5077201;28;20868;-45
2022/05/01 04:22:45;;;;;;;30.13;25.93;;;10.80;95.00;;;;;;5077517;28;20676;-46
2022/05/01 04:25:21;;;;;;;33.67;26.80;;;10.80;95.00;;;;;;5077664;28;20412;-46
2022/05/01 04:27:49;;;;;;;30.83;26.93;;;10.70;95.00;;;;;;5078100;28;20412;-46
2022/05/01 04:30:16;;;;;;;28.67;23.57;;;10.70;95.10;;;;;;5077773;28;20503;-46
2022/05/01 04:32:50;;;;;;;31.60;27.43;;;10.70;95.20;;;;;;5077888;28;20439;-46
2022/05/01 04:35:43;;;;;;;32.17;26.37;;;10.70;95.20;;;;;;5077674;28;20442;-46
2022/05/01 04:38:23;;;;;;;32.30;25.37;;;10.70;95.20;;;;;;5078125;28;20454;-46
2022/05/01 04:40:58;;;;;;;33.70;25.67;;;10.70;95.20;;;;;;5077924;28;20550;-46
2022/05/01 04:43:25;;;;;;;30.33;24.47;;;10.80;95.30;;;;;;5077737;28;20557;-46
2022/05/01 04:45:56;;;;;;;32.10;26.90;;;10.80;95.30;;;;;;5077062;28;20413;-46
2022/05/01 04:48:24;;;;;;;35.93;25.80;;;10.80;95.20;;;;;;5077912;28;20846;-47
2022/05/01 04:50:50;;;;;;;34.87;27.90;;;10.80;95.30;;;;;;5077599;28;20436;-46
2022/05/01 04:53:18;;;;;;;34.67;25.77;;;10.80;95.20;;;;;;5078081;28;20431;-46
2022/05/01 04:55:46;;;;;;;34.50;26.47;;;10.90;95.30;;;;;;5077836;28;20564;-46
2022/05/01 04:58:14;;;;;;;33.47;24.50;;;10.90;95.20;;;;;;5078008;28;20694;-46
2022/05/01 05:00:41;;;;;;;36.77;26.90;;;10.90;95.20;;;;;;5076784;28;20479;-46
2022/05/01 05:03:07;;;;;;;29.87;25.10;;;11.00;95.20;;;;;;5077507;28;20432;-45
2022/05/01 05:05:34;;;;;;;34.17;26.03;;;11.00;95.10;;;;;;5077035;28;20429;-46
2022/05/01 05:09:53;;;;;;;34.93;26.70;;;11.10;95.10;;;;;;5077317;28;20818;-46
2022/05/01 05:10:47;;;;;;;32.40;25.10;;;11.10;95.00;;;;;;5076762;28;20427;-46
2022/05/01 05:13:14;;;;;;;31.87;24.33;;;11.10;94.90;;;;;;5077138;28;20488;-45
2022/05/01 05:15:40;;;;;;;34.87;26.80;;;11.20;94.90;;;;;;5077634;28;20422;-46
2022/05/01 05:18:06;;;;;;;32.27;24.67;;;11.20;94.80;;;;;;5077355;28;20447;-46
2022/05/01 05:20:32;;;;;;;34.33;26.00;;;11.30;94.70;;;;;;5077250;28;20497;-46
2022/05/01 05:22:57;;;;;;;36.87;27.30;;;11.30;94.60;;;;;;5077340;28;20518;-46
2022/05/01 05:25:23;;;;;;;30.77;25.07;;;11.30;94.50;;;;;;5077018;28;20491;-46
2022/05/01 05:27:49;;;;;;;36.67;27.03;;;11.40;94.40;;;;;;5076212;28;20205;-46
2022/05/01 05:30:15;;;;;;;36.63;26.87;;;11.50;94.40;;;;;;5075294;28;20223;-46
2022/05/01 05:32:40;;;;;;;37.00;26.57;;;11.50;94.20;;;;;;5058564;28;20509;-46
2022/05/01 05:35:06;;;;;;;34.23;27.10;;;11.50;94.10;;;;;;5076095;28;20181;-46
2022/05/01 05:37:32;;;;;;;32.57;24.30;;;11.60;94.00;;;;;;5075708;28;20482;-46
2022/05/01 05:39:58;;;;;;;34.13;24.33;;;11.60;94.00;;;;;;5075803;28;20510;-46
2022/05/01 05:42:23;;;;;;;31.57;24.07;;;11.70;94.00;;;;;;5076404;28;20757;-46
2022/05/01 05:44:49;;;;;;;32.63;24.47;;;11.70;93.80;;;;;;5042475;28;20189;-46
2022/05/01 05:47:15;;;;;;;31.03;25.10;;;11.80;93.80;;;;;;5076436;28;20181;-46
2022/05/01 05:49:40;;;;;;;31.03;24.30;;;11.80;93.60;;;;;;5076641;28;20603;-45
2022/05/01 05:52:06;;;;;;;31.73;24.27;;;11.90;93.50;;;;;;5076627;28;20182;-45
2022/05/01 05:54:33;;;;;;;30.70;24.80;;;11.90;93.30;;;;;;5076838;28;20248;-46
2022/05/01 05:56:58;;;;;;;30.20;24.00;;;12.00;93.30;;;;;;5076245;28;20438;-46
2022/05/01 05:59:24;;;;;;;30.27;24.47;;;12.00;93.10;;;;;;5076696;28;20416;-46
2022/05/01 06:01:50;;;;;;;25.63;22.33;;;12.10;93.00;;;;;;5076432;28;20494;-46
2022/05/01 06:04:16;;;;;;;26.10;23.20;;;12.10;92.90;;;;;;5076923;28;20193;-46
2022/05/01 06:06:41;;;;;;;27.13;23.17;;;12.20;92.80;;;;;;5076794;28;20206;-46
2022/05/01 06:09:09;;;;;;;28.53;23.33;;;12.30;92.70;;;;;;5076383;28;20477;-46
2022/05/01 06:11:38;;;;;;;24.33;21.37;;;12.30;92.60;;;;;;5077535;28;20189;-45
2022/05/01 06:14:04;;;;;;;28.20;22.07;;;12.40;92.40;;;;;;5080245;28;20597;-45
2022/05/01 06:16:31;;;;;;;24.87;20.63;;;12.40;92.30;;;;;;5080775;28;20420;-45
2022/05/01 06:18:59;;;;;;;25.40;21.50;;;12.40;92.20;;;;;;5080193;28;20717;-45
2022/05/01 06:21:26;;;;;;;22.47;20.17;;;12.50;92.10;;;;;;5079767;28;20564;-45
2022/05/01 06:23:52;;;;;;;28.40;21.70;;;12.50;92.00;;;;;;5079482;28;20416;-46
2022/05/01 06:26:18;;;;;;;24.20;21.37;;;12.50;91.90;;;;;;5080214;28;20430;-46
2022/05/01 06:28:43;;;;;;;23.77;20.33;;;12.50;91.90;;;;;;5063131;28;20209;-45
2022/05/01 06:31:09;;;;;;;27.90;22.70;;;12.50;91.80;;;;;;5062530;28;20194;-46
2022/05/01 06:33:36;;;;;;;23.70;19.83;;;12.60;91.70;;;;;;5080605;28;20585;-45
2022/05/01 06:36:02;;;;;;;23.60;20.83;;;12.60;91.60;;;;;;5062577;28;20524;-46
2022/05/01 06:38:28;;;;;;;23.40;19.60;;;12.60;91.90;;;;;;5080247;28;20496;-46
2022/05/01 06:40:54;;;;;;;22.23;19.83;;;12.60;91.50;;;;;;5079750;28;20877;-52
2022/05/01 06:43:20;;;;;;;24.20;21.60;;;12.60;91.50;;;;;;5079514;28;20431;-46
2022/05/01 06:45:47;;;;;;;22.10;19.80;;;12.70;91.50;;;;;;5079866;28;20196;-48
2022/05/01 06:48:13;;;;;;;22.60;19.93;;;12.70;91.40;;;;;;5079823;28;20247;-46
2022/05/01 06:50:39;;;;;;;22.50;20.10;;;12.70;91.30;;;;;;5079868;28;20432;-46
2022/05/01 06:53:05;;;;;;;21.03;18.70;;;12.70;91.20;;;;;;5078812;28;20192;-46
2022/05/01 06:55:31;;;;;;;21.53;18.67;;;12.80;91.10;;;;;;5079507;28;20463;-46
2022/05/01 06:57:57;;;;;;;21.50;18.87;;;12.80;91.00;;;;;;5060954;28;20443;-46
2022/05/01 07:00:23;;;;;;;22.67;19.93;;;12.80;90.90;;;;;;5077686;28;20479;-47
2022/05/01 07:02:51;;;;;;;22.53;17.83;;;12.90;90.90;;;;;;5060155;28;20190;-47
2022/05/01 07:05:18;;;;;;;19.70;16.97;;;12.90;90.70;;;;;;5059623;28;20416;-47
2022/05/01 07:07:44;;;;;;;20.40;18.20;;;12.90;90.60;;;;;;5077655;28;20450;-45
2022/05/01 07:10:10;;;;;;;19.43;17.33;;;12.90;90.50;;;;;;5078481;28;20422;-44
2022/05/01 07:12:36;;;;;;;23.13;19.13;;;13.00;90.40;;;;;;5078018;28;20491;-44
2022/05/01 07:15:03;;;;;;;23.60;18.57;;;13.00;90.40;;;;;;5078954;28;20494;-44
2022/05/01 07:17:28;;;;;;;22.63;19.33;;;13.10;90.30;;;;;;5061386;28;20434;-45
2022/05/01 07:19:54;;;;;;;21.47;19.10;;;13.10;90.30;;;;;;5078035;28;20428;-45
2022/05/01 07:22:20;;;;;;;22.43;18.73;;;13.20;90.30;;;;;;5076679;28;20614;-43
2022/05/01 07:24:46;;;;;;;20.63;18.40;;;13.20;90.20;;;;;;5077261;28;20262;-45
2022/05/01 07:27:13;;;;;;;21.93;19.53;;;13.20;90.10;;;;;;5076519;28;20427;-46
2022/05/01 07:29:40;;;;;;;19.90;17.87;;;13.20;90.00;;;;;;5077723;28;20424;-45
2022/05/01 07:32:06;;;;;;;19.97;17.97;;;13.20;90.00;;;;;;5078254;28;20440;-42
2022/05/01 07:34:31;;;;;;;20.27;18.27;;;13.20;90.00;;;;;;5077807;28;20445;-43
2022/05/01 07:36:58;;;;;;;21.50;18.33;;;13.20;90.00;;;;;;5077216;28;20428;-46
2022/05/01 07:39:23;;;;;;;22.57;19.83;;;13.20;90.00;;;;;;5077071;28;20197;-43
2022/05/01 07:41:49;;;;;;;21.33;19.13;;;13.20;90.00;;;;;;5076906;28;20483;-43
2022/05/01 07:44:15;;;;;;;21.17;18.87;;;13.20;90.00;;;;;;5077110;28;20274;-44
2022/05/01 07:46:41;;;;;;;21.03;18.90;;;13.30;90.00;;;;;;5077361;28;20222;-43
2022/05/01 07:49:07;;;;;;;21.03;18.93;;;13.30;89.80;;;;;;5076057;28;20391;-43
2022/05/01 07:51:33;;;;;;;22.10;19.80;;;13.40;89.80;;;;;;5076631;28;20436;-45
2022/05/01 07:53:59;;;;;;;21.87;19.57;;;13.50;89.60;;;;;;5075683;28;20640;-44
2022/05/01 07:56:25;;;;;;;20.37;18.37;;;13.60;89.30;;;;;;5075805;28;20880;-45
2022/05/01 07:58:52;;;;;;;19.47;17.37;;;13.60;89.20;;;;;;5075269;28;20860;-43
2022/05/01 08:01:17;;;;;;;21.40;19.30;;;13.70;88.90;;;;;;5075541;28;20517;-43
2022/05/01 08:06:28;;;;;;;19.70;17.60;;;13.80;88.30;;;;;;5076209;28;20426;-44
2022/05/01 08:08:53;;;;;;;20.03;17.93;;;13.90;87.90;;;;;;5076708;28;20834;-45
2022/05/01 08:11:19;;;;;;;19.63;17.63;;;14.00;87.60;;;;;;5077222;28;20182;-44
2022/05/01 08:13:45;;;;;;;18.10;16.20;;;14.10;87.20;;;;;;5077604;28;20197;-44
2022/05/01 08:16:11;;;;;;;17.80;15.90;;;14.20;87.00;;;;;;5077335;28;20284;-44
2022/05/01 08:21:21;;;;;;;19.33;16.67;;;14.50;86.30;;;;;;5077622;28;20240;-44
2022/05/01 08:23:48;;;;;;;18.00;15.67;;;14.60;85.70;;;;;;5077496;28;20417;-44
2022/05/01 08:26:14;;;;;;;16.57;14.87;;;14.70;85.20;;;;;;5077887;28;20190;-45
2022/05/01 08:28:41;;;;;;;17.63;15.80;;;14.80;84.80;;;;;;5077785;28;20438;-46
2022/05/01 08:31:07;;;;;;;20.30;18.07;;;15.00;84.60;;;;;;5059937;28;20427;-43
2022/05/01 08:33:34;;;;;;;17.60;15.90;;;15.10;84.20;;;;;;5078019;28;20486;-46
2022/05/01 08:36:02;;;;;;;17.20;15.40;;;15.20;83.40;;;;;;5058964;28;20429;-45
2022/05/01 08:38:28;;;;;;;16.73;15.03;;;15.30;82.60;;;;;;5077303;28;20713;-44
2022/05/01 08:40:54;;;;;;;17.50;15.80;;;15.40;81.90;;;;;;5059381;28;20474;-43
2022/05/01 08:43:22;;;;;;;20.20;17.30;;;15.40;81.30;;;;;;5076945;28;20892;-47
2022/05/01 08:45:54;;;;;;;16.23;14.70;;;15.60;80.70;;;;;;5076248;28;20764;-46
2022/05/01 08:48:26;;;;;;;16.67;14.57;;;15.70;80.40;;;;;;5076676;28;20702;-45
2022/05/01 08:50:52;;;;;;;15.30;13.70;;;15.80;80.10;;;;;;5058159;28;20456;-47
2022/05/01 08:53:18;;;;;;;15.33;13.93;;;16.00;79.70;;;;;;5057642;28;20440;-45
2022/05/01 08:55:47;;;;;;;15.83;14.27;;;16.20;79.30;;;;;;5058316;28;20489;-46
2022/05/01 08:58:14;;;;;;;16.20;14.53;;;16.40;78.60;;;;;;5076296;28;20454;-46
2022/05/01 09:00:41;;;;;;;19.23;17.33;;;16.60;77.90;;;;;;5076694;28;20473;-44
2022/05/01 09:03:07;;;;;;;19.17;17.07;;;16.80;77.10;;;;;;5077076;28;20815;-45
2022/05/01 09:05:33;;;;;;;18.27;16.27;;;17.00;76.50;;;;;;5058992;28;20438;-45
2022/05/01 09:07:59;;;;;;;19.17;17.20;;;17.10;75.70;;;;;;5076810;28;20546;-43
2022/05/01 09:10:27;;;;;;;15.90;14.20;;;17.30;74.30;;;;;;5076475;28;20440;-45
2022/05/01 09:12:53;;;;;;;16.17;14.67;;;17.50;73.80;;;;;;5077015;28;20178;-45
2022/05/01 09:15:34;;;;;;;15.77;14.17;;;17.60;72.60;;;;;;5075896;28;20490;-44
2022/05/01 09:18:05;;;;;;;16.93;15.13;;;17.70;71.80;;;;;;5057783;28;20495;-45
2022/05/01 09:20:31;;;;;;;15.80;14.23;;;17.90;71.00;;;;;;5057116;28;20566;-45
2022/05/01 09:22:58;;;;;;;14.00;12.60;;;18.00;70.30;;;;;;5074643;28;20420;-47
2022/05/01 09:25:28;;;;;;;14.93;13.30;;;18.10;69.80;;;;;;5074597;28;20478;-46
2022/05/01 09:28:01;;;;;;;15.10;13.60;;;18.30;69.40;;;;;;5073106;28;20737;-45
2022/05/01 09:30:35;;;;;;;13.87;12.47;;;18.40;68.40;;;;;;5072890;28;20851;-42
2022/05/01 09:33:02;;;;;;;15.93;13.23;;;18.40;67.20;;;;;;5074749;28;20774;-47
2022/05/01 09:35:33;;;;;;;13.33;12.17;;;18.50;65.70;;;;;;5056673;28;20459;-47
2022/05/01 09:38:23;;;;;;;13.40;12.03;;;18.50;65.10;;;;;;5073350;28;20448;-45
2022/05/01 09:40:52;;;;;;;13.27;11.97;;;18.50;64.20;;;;;;5072674;28;20478;-44
2022/05/01 09:43:41;;;;;;;10.17;9.27;;;18.40;61.80;;;;;;5076192;28;20493;-45
2022/05/01 09:46:13;;;;;;;11.97;10.77;;;18.40;60.90;;;;;;5075317;28;20709;-44
2022/05/01 09:48:41;;;;;;;10.53;9.53;;;18.40;60.60;;;;;;5079265;28;20417;-44
2022/05/01 09:51:19;;;;;;;10.97;9.87;;;18.50;60.40;;;;;;5078674;28;20796;-48
2022/05/01 09:53:46;;;;;;;10.50;9.53;;;18.60;59.80;;;;;;5078865;28;20525;-45
2022/05/01 09:56:12;;;;;;;11.43;9.80;;;18.90;58.90;;;;;;5078423;28;20425;-45
2022/05/01 09:58:40;;;;;;;10.03;9.10;;;19.00;57.90;;;;;;5079496;28;20429;-43
2022/05/01 10:01:16;;;;;;;6.83;6.17;;;19.30;57.60;;;;;;5079289;28;20542;-45
2022/05/01 10:03:45;;;;;;;6.67;5.90;;;19.40;58.80;;;;;;5080305;28;20442;-44
2022/05/01 10:06:12;;;;;;;6.90;6.30;;;19.60;62.00;;;;;;5079661;28;20701;-45
2022/05/01 10:08:39;;;;;;;8.07;7.27;;;19.70;60.90;;;;;;5078725;28;20480;-44
2022/05/01 10:11:07;;;;;;;6.10;5.60;;;19.80;61.20;;;;;;5079128;28;20466;-43
2022/05/01 10:13:34;;;;;;;7.93;7.03;;;19.80;59.40;;;;;;5079518;28;20706;-44
2022/05/01 10:16:01;;;;;;;7.00;6.40;;;19.80;58.70;;;;;;5079139;28;20457;-46
2022/05/01 10:18:26;;;;;;;7.50;6.80;;;19.70;59.10;;;;;;5045569;28;20867;-44
2022/05/01 10:20:53;;;;;;;8.20;7.37;;;19.60;58.70;;;;;;5079572;28;20507;-44
2022/05/01 10:23:19;;;;;;;11.30;7.20;;;19.60;59.40;;;;;;5075191;28;20195;-47
2022/05/01 10:25:51;;;;;;;8.70;7.90;;;19.60;58.70;;;;;;5062433;28;20432;-43
2022/05/01 10:28:57;;;;;;;7.87;7.07;;;19.60;58.40;;;;;;5045753;28;20451;-44
2022/05/01 10:35:02;;;;;;;9.80;8.90;;;19.90;58.60;;;;;;5078877;28;20473;-44
2022/05/01 10:38:02;;;;;;;8.57;7.77;;;20.10;58.10;;;;;;5078943;28;20421;-47
2022/05/01 10:40:40;;;;;;;9.40;8.40;;;20.40;57.10;;;;;;5061646;28;20491;-44
2022/05/01 10:43:26;;;;;;;10.33;9.30;;;20.50;55.40;;;;;;5078484;28;20421;-42
2022/05/01 10:45:53;;;;;;;9.20;8.40;;;20.50;55.30;;;;;;5078984;28;20497;-44
2022/05/01 10:48:38;;;;;;;9.60;8.70;;;20.50;55.40;;;;;;5078455;28;20472;-46
2022/05/01 10:51:36;;;;;;;8.23;7.53;;;20.60;55.30;;;;;;5078165;28;20458;-45
2022/05/01 10:54:29;;;;;;;8.97;8.10;;;20.70;54.70;;;;;;5078205;28;20558;-45
2022/05/01 10:57:07;;;;;;;8.97;7.43;;;20.80;54.30;;;;;;5076761;28;20443;-42
2022/05/01 10:59:46;;;;;;;8.70;7.90;;;21.00;53.80;;;;;;5077574;28;20456;-44
2022/05/01 11:02:41;;;;;;;8.97;8.17;;;21.20;53.10;;;;;;5079036;28;20478;-46
2022/05/01 11:05:09;;;;;;;8.43;7.50;;;21.40;52.30;;;;;;5078118;28;20427;-44
2022/05/01 11:07:39;;;;;;;10.10;7.77;;;21.50;51.80;;;;;;5060950;28;20504;-44
2022/05/01 11:10:07;;;;;;;7.90;7.20;;;21.70;52.30;;;;;;5077442;28;20880;-44
2022/05/01 11:12:35;;;;;;;8.70;7.90;;;21.80;51.50;;;;;;5076426;28;20454;-46
2022/05/01 11:15:09;;;;;;;7.50;6.80;;;21.90;51.10;;;;;;5076973;28;20444;-46
2022/05/01 11:17:46;;;;;;;7.70;7.00;;;22.00;50.80;;;;;;5077312;28;20462;-45
2022/05/01 11:20:14;;;;;;;8.50;7.13;;;22.10;50.30;;;;;;5071222;28;20481;-48
2022/05/01 11:22:41;;;;;;;7.73;7.10;;;22.40;50.10;;;;;;5075517;28;20704;-46
2022/05/01 11:25:13;;;;;;;7.50;6.90;;;22.50;49.60;;;;;;5073122;28;20442;-46
2022/05/01 11:27:52;;;;;;;7.77;7.07;;;22.70;49.30;;;;;;5075719;28;20428;-43
2022/05/01 11:30:27;;;;;;;8.70;7.30;;;22.90;48.90;;;;;;5075471;28;20577;-46
2022/05/01 11:33:02;;;;;;;7.83;7.13;;;23.10;48.40;;;;;;5077755;28;20430;-46
2022/05/01 11:35:56;;;;;;;8.93;8.03;;;23.10;47.80;;;;;;5059791;28;20824;-47
2022/05/01 11:38:38;;;;;;;8.17;7.47;;;23.10;46.50;;;;;;5076113;28;20460;-48
2022/05/01 11:41:06;;;;;;;10.07;8.47;;;23.20;46.50;;;;;;5058508;28;20536;-47
2022/05/01 11:43:34;;;;;;;8.30;7.57;;;23.10;46.10;;;;;;5076687;28;20421;-44
2022/05/01 11:46:01;;;;;;;8.63;7.73;;;23.10;46.50;;;;;;5076207;28;20918;-46
2022/05/01 11:48:27;;;;;;;7.70;7.00;;;23.40;46.30;;;;;;5076591;28;20421;-47
2022/05/01 11:50:58;;;;;;;7.57;6.83;;;23.70;46.00;;;;;;5076903;28;20423;-45
2022/05/01 11:53:27;;;;;;;7.83;6.97;;;24.20;45.00;;;;;;5058471;28;20760;-45
2022/05/01 12:04:24;;;;;;;6.83;6.27;;;28.00;39.00;;;;;;5076855;28;20717;-47
2022/05/01 12:07:16;;;;;;;7.57;6.97;;;28.40;37.90;;;;;;5059566;28;20424;-46
2022/05/01 12:09:43;;;;;;;6.43;5.87;;;29.10;37.20;;;;;;5076599;28;20430;-47
2022/05/01 12:12:12;;;;;;;7.40;6.80;;;29.60;37.30;;;;;;5077916;28;20441;-44
2022/05/01 12:14:42;;;;;;;7.83;7.23;;;30.00;36.30;;;;;;5077375;28;20423;-48
2022/05/01 12:17:18;;;;;;;7.00;6.40;;;30.20;35.50;;;;;;5077885;28;20406;-46
2022/05/01 12:19:49;;;;;;;5.90;5.40;;;30.00;35.30;;;;;;5076883;28;20433;-45
2022/05/01 12:22:17;;;;;;;5.47;5.07;;;30.00;35.60;;;;;;5076388;28;20511;-46
2022/05/01 12:24:44;;;;;;;6.40;5.90;;;30.10;35.70;;;;;;5076604;28;20382;-45
2022/05/01 12:27:12;;;;;;;6.63;6.17;;;29.90;35.50;;;;;;5076340;28;20487;-44
2022/05/01 12:29:42;;;;;;;6.20;5.70;;;29.80;35.70;;;;;;5076572;28;20446;-44
2022/05/01 12:32:12;;;;;;;6.07;5.57;;;30.10;35.90;;;;;;5076502;28;20469;-45
2022/05/01 12:34:40;;;;;;;7.00;6.20;;;30.00;35.50;;;;;;5057446;28;20424;-47
2022/05/01 12:37:15;;;;;;;5.53;5.10;;;29.80;35.50;;;;;;5077128;28;20427;-45
2022/05/01 12:39:41;;;;;;;6.60;6.10;;;29.50;35.60;;;;;;5077709;28;20705;-45
2022/05/01 12:45:09;;;;;;;6.30;5.90;;;28.70;35.90;;;;;;5076203;28;20677;-45
2022/05/01 12:47:37;;;;;;;6.40;5.90;;;28.20;36.50;;;;;;5075425;28;20789;-44
2022/05/01 12:50:19;;;;;;;7.03;6.33;;;27.80;36.90;;;;;;5075673;28;20401;-44
2022/05/01 12:52:50;;;;;;;6.20;5.70;;;27.60;37.00;;;;;;5075812;28;20423;-47
2022/05/01 12:55:22;;;;;;;6.30;5.80;;;27.90;37.60;;;;;;5076296;28;20485;-44
2022/05/01 12:57:52;;;;;;;5.40;5.00;;;28.20;36.70;;;;;;5058174;28;20580;-45
2022/05/01 13:00:34;;;;;;;5.70;5.30;;;28.30;36.70;;;;;;5058442;28;20430;-47
2022/05/01 13:03:13;;;;;;;7.20;6.50;;;28.40;36.80;;;;;;5076004;28;20419;-45
2022/05/01 13:05:39;;;;;;;6.67;6.07;;;28.10;36.10;;;;;;5076054;28;20416;-46
2022/05/01 13:08:16;;;;;;;9.00;5.90;;;27.90;36.30;;;;;;5076916;28;20900;-46
2022/05/01 13:10:42;;;;;;;6.00;5.37;;;27.70;36.80;;;;;;5076073;28;20397;-44
2022/05/01 13:13:07;;;;;;;5.60;5.17;;;27.60;37.20;;;;;;5058802;28;20434;-45